Terminal Aerodrome Forecast
Issued by NWS Upton, NY

Home | Current Version | Previous Version | Text Only | Print | Product List | Glossary On
Versions: 1 2 3 4 5 6 7 8 9 10 11 12 13 14 15 16 17 18 19 20 21 22 23 24 25 26 27 28 29 30
081
FTUS41 KOKX 221920 AAB
TAFJFK
TAF AMD
KJFK 221920Z 2219/2324 27018G27KT P6SM BKN060
      TEMPO 2219/2221 -SHRA
     FM222200 32019G30KT P6SM BKN060
     FM230200 32016G25KT P6SM SCT060
     FM230800 32010KT P6SM SKC
     FM231600 22015KT P6SM FEW250=

USA.gov is the U.S. government's official web portal to all federal, state and local government web resources and services.